Time;durP1;ratioP1;P1;durP2;ratioP2;P2;SDS_P1;SDS_P2;PMS_P1;PMS_P2;Temp;Humidity;BMP_temperature;BMP_pressure;BME280_temperature;BME280_humidity;BME280_pressure;Samples;Min_cycle;Max_cycle;Signal;HPM_P1;HPM_P2
2023/03/20 00:02:21;;;;;;;46.02;21.73;;;9.30;93.80;;;;;;1924677;74;21525;-59
2023/03/20 00:04:50;;;;;;;48.75;22.07;;;9.30;93.80;;;;;;1924896;74;21098;-59
2023/03/20 00:07:20;;;;;;;40.75;20.20;;;9.30;93.80;;;;;;1924867;74;21195;-59
2023/03/20 00:09:49;;;;;;;41.88;19.92;;;9.30;94.10;;;;;;1924743;74;21134;-58
2023/03/20 00:12:20;;;;;;;48.30;23.55;;;9.30;93.80;;;;;;1924699;74;21579;-59
2023/03/20 00:14:49;;;;;;;52.20;23.47;;;9.30;93.80;;;;;;1924676;74;21147;-59
2023/03/20 00:17:20;;;;;;;47.43;23.52;;;9.30;93.80;;;;;;1924769;74;21018;-59
2023/03/20 00:19:49;;;;;;;41.50;22.95;;;9.30;93.80;;;;;;1924701;74;21138;-59
2023/03/20 00:22:18;;;;;;;44.60;22.98;;;9.30;93.90;;;;;;1924731;74;21154;-59
2023/03/20 00:24:48;;;;;;;44.42;19.87;;;9.30;93.90;;;;;;1924727;74;21277;-58
2023/03/20 00:27:17;;;;;;;31.70;18.42;;;9.30;93.90;;;;;;1924685;74;21138;-59
2023/03/20 00:29:46;;;;;;;39.83;20.68;;;9.20;94.00;;;;;;1924728;74;21620;-59
2023/03/20 00:32:15;;;;;;;50.78;22.52;;;9.20;93.90;;;;;;1924671;74;21572;-59
2023/03/20 00:34:45;;;;;;;47.78;21.37;;;9.20;93.90;;;;;;1924713;74;21114;-58
2023/03/20 00:37:14;;;;;;;42.48;20.80;;;9.20;93.90;;;;;;1924820;74;21185;-58
2023/03/20 00:39:43;;;;;;;38.83;20.60;;;9.20;93.90;;;;;;1924706;74;21195;-59
2023/03/20 00:42:15;;;;;;;36.85;19.02;;;9.30;93.90;;;;;;1924599;74;21389;-59
2023/03/20 00:44:52;;;;;;;42.95;18.60;;;9.20;93.90;;;;;;1923895;74;21138;-58
2023/03/20 00:47:24;;;;;;;41.15;20.35;;;9.20;94.10;;;;;;1924318;74;21240;-58
2023/03/20 00:49:54;;;;;;;37.15;18.52;;;9.20;93.90;;;;;;1924580;74;21062;-57
2023/03/20 00:52:24;;;;;;;33.45;17.82;;;9.20;93.90;;;;;;1905339;75;21180;-58
2023/03/20 00:54:53;;;;;;;37.80;19.23;;;9.20;93.90;;;;;;1905310;75;21338;-59
2023/03/20 00:57:30;;;;;;;35.50;17.65;;;9.10;93.80;;;;;;1905390;75;21175;-58
2023/03/20 01:00:23;;;;;;;37.75;18.92;;;9.10;93.90;;;;;;1905265;74;21186;-58
2023/03/20 01:02:54;;;;;;;34.20;17.40;;;9.10;93.90;;;;;;1890795;75;21063;-59
2023/03/20 01:05:27;;;;;;;32.85;19.12;;;9.10;93.90;;;;;;1905378;75;21107;-59
2023/03/20 01:07:57;;;;;;;38.80;18.60;;;9.10;93.90;;;;;;1905347;75;21139;-58
2023/03/20 01:10:28;;;;;;;34.73;19.17;;;9.10;94.00;;;;;;1905486;75;21077;-59
2023/03/20 01:12:59;;;;;;;36.65;17.45;;;9.00;93.90;;;;;;1905450;75;21055;-59
2023/03/20 01:15:31;;;;;;;33.75;17.95;;;9.00;93.90;;;;;;1905480;74;21303;-59
2023/03/20 01:18:00;;;;;;;31.68;16.65;;;9.00;94.00;;;;;;1905435;75;21649;-59
2023/03/20 01:20:31;;;;;;;34.67;18.27;;;9.00;94.00;;;;;;1905378;75;21589;-59
2023/03/20 01:23:00;;;;;;;36.10;19.20;;;8.90;94.10;;;;;;1905420;75;21142;-59
2023/03/20 01:25:29;;;;;;;33.58;17.73;;;8.90;94.00;;;;;;1905453;75;21181;-59
2023/03/20 01:27:58;;;;;;;36.90;18.42;;;8.80;94.10;;;;;;1905434;74;21587;-59
2023/03/20 01:30:31;;;;;;;29.42;15.78;;;8.80;94.20;;;;;;1905380;75;21102;-59
2023/03/20 01:33:01;;;;;;;21.48;12.47;;;8.80;94.20;;;;;;1905431;75;21328;-59
2023/03/20 01:35:31;;;;;;;30.70;16.27;;;8.80;94.20;;;;;;1905487;75;21303;-59
2023/03/20 01:38:01;;;;;;;28.73;16.45;;;8.80;94.30;;;;;;1905413;74;21157;-59
2023/03/20 01:40:45;;;;;;;35.23;19.00;;;8.80;94.20;;;;;;1905359;75;21482;-59
2023/03/20 01:43:18;;;;;;;35.33;17.45;;;8.80;94.20;;;;;;1902001;75;21213;-59
2023/03/20 01:46:06;;;;;;;24.67;13.55;;;8.80;94.20;;;;;;1905213;74;21182;-59
2023/03/20 01:48:59;;;;;;;44.93;20.23;;;8.80;94.20;;;;;;1858093;77;21379;-59
2023/03/20 01:51:26;;;;;;;35.58;18.30;;;8.80;94.30;;;;;;1904202;74;21170;-59
2023/03/20 01:54:06;;;;;;;42.65;19.05;;;8.80;94.30;;;;;;1924686;73;21114;-59
2023/03/20 01:56:39;;;;;;;39.53;19.60;;;8.80;94.40;;;;;;1924841;74;21199;-59
2023/03/20 01:59:19;;;;;;;31.55;16.87;;;8.80;94.20;;;;;;1924866;74;21152;-59
2023/03/20 02:01:45;;;;;;;38.00;19.80;;;8.80;94.40;;;;;;1923830;74;21319;-59
2023/03/20 02:04:17;;;;;;;39.23;20.43;;;8.80;94.20;;;;;;1924605;74;21138;-59
2023/03/20 02:06:48;;;;;;;39.40;20.55;;;8.80;94.30;;;;;;1923915;74;21286;-59
2023/03/20 02:09:18;;;;;;;38.80;19.02;;;8.80;94.30;;;;;;1924528;74;21483;-59
2023/03/20 02:11:48;;;;;;;43.68;20.05;;;8.80;94.30;;;;;;1924738;74;21038;-59
2023/03/20 02:14:20;;;;;;;41.55;21.10;;;8.80;94.30;;;;;;1924940;74;21094;-59
2023/03/20 02:16:50;;;;;;;47.45;22.48;;;8.80;94.30;;;;;;1923394;74;21228;-59
2023/03/20 02:19:53;;;;;;;43.52;20.60;;;8.80;94.50;;;;;;1899349;74;21153;-59
2023/03/20 02:22:37;;;;;;;41.92;21.10;;;8.80;94.30;;;;;;1924183;74;21102;-59
2023/03/20 02:25:41;;;;;;;37.10;19.85;;;8.80;94.30;;;;;;1922525;74;21268;-59
2023/03/20 02:28:33;;;;;;;38.17;21.35;;;8.80;94.30;;;;;;1923476;74;21137;-59
2023/03/20 02:31:09;;;;;;;36.33;18.57;;;8.80;94.40;;;;;;1924867;74;21233;-59
2023/03/20 02:33:44;;;;;;;38.53;20.50;;;8.80;94.50;;;;;;1924405;74;21700;-59
2023/03/20 02:36:26;;;;;;;;;;;8.80;94.40;;;;;;1926485;74;21166;-59
2023/03/20 02:39:24;;;;;;;36.33;19.40;;;8.80;94.70;;;;;;1923880;74;20635;-59
2023/03/20 02:42:05;;;;;;;42.55;20.62;;;8.70;94.40;;;;;;1924534;74;21190;-59
2023/03/20 02:44:47;;;;;;;36.53;19.90;;;8.70;94.30;;;;;;1910714;74;21587;-59
2023/03/20 02:47:25;;;;;;;37.48;20.08;;;8.70;94.40;;;;;;1919751;74;21599;-59
2023/03/20 02:50:15;;;;;;;36.68;20.32;;;8.70;94.50;;;;;;1920678;74;21220;-59
2023/03/20 02:52:48;;;;;;;41.15;21.60;;;8.70;94.60;;;;;;1924753;74;21346;-59
2023/03/20 02:55:20;;;;;;;30.68;17.55;;;8.70;94.60;;;;;;1924740;74;21217;-59
2023/03/20 02:58:01;;;;;;;42.48;21.10;;;8.60;94.80;;;;;;1924673;74;21165;-59
2023/03/20 03:00:36;;;;;;;43.73;20.45;;;8.60;94.90;;;;;;1924787;74;21248;-59
2023/03/20 03:03:10;;;;;;;41.58;18.10;;;8.60;94.90;;;;;;1924723;74;21348;-59
2023/03/20 03:05:49;;;;;;;34.65;19.67;;;8.60;95.20;;;;;;1923216;74;21171;-59
2023/03/20 03:08:21;;;;;;;34.78;20.92;;;8.60;94.90;;;;;;1924734;74;21249;-59
2023/03/20 03:10:53;;;;;;;38.60;20.43;;;8.60;95.10;;;;;;1924765;74;21200;-59
2023/03/20 03:13:26;;;;;;;41.85;22.10;;;8.50;95.00;;;;;;1924404;74;21699;-59
2023/03/20 03:15:57;;;;;;;38.78;19.40;;;8.50;94.90;;;;;;1924744;74;21157;-59
2023/03/20 03:18:27;;;;;;;43.40;19.82;;;8.50;95.10;;;;;;1924907;74;21102;-59
2023/03/20 03:20:59;;;;;;;33.80;16.45;;;8.50;95.10;;;;;;1924712;74;21268;-59
2023/03/20 03:23:42;;;;;;;43.10;21.40;;;8.50;95.20;;;;;;1924695;74;21211;-59
2023/03/20 03:26:14;;;;;;;39.03;21.30;;;8.50;95.20;;;;;;1924844;74;21185;-59
2023/03/20 03:28:47;;;;;;;38.42;19.62;;;8.50;95.00;;;;;;1924785;74;21429;-59
2023/03/20 03:31:18;;;;;;;41.85;19.45;;;8.50;95.20;;;;;;1924838;74;21252;-59
2023/03/20 03:33:50;;;;;;;37.60;19.95;;;8.50;95.80;;;;;;1924807;74;21213;-59
2023/03/20 03:36:37;;;;;;;38.48;20.97;;;8.50;95.60;;;;;;1924712;74;21197;-59
2023/03/20 03:39:18;;;;;;;44.40;20.37;;;8.40;95.60;;;;;;1924635;74;21225;-59
2023/03/20 03:42:03;;;;;;;44.38;19.07;;;8.40;95.50;;;;;;1924618;74;21229;-59
2023/03/20 03:44:38;;;;;;;41.95;19.75;;;8.40;95.50;;;;;;1924776;74;21189;-59
2023/03/20 03:47:12;;;;;;;46.05;22.30;;;8.40;95.50;;;;;;1924882;74;21513;-59
2023/03/20 03:49:44;;;;;;;43.30;20.37;;;8.50;95.50;;;;;;1925059;74;21318;-59
2023/03/20 03:52:16;;;;;;;40.30;21.12;;;8.50;95.50;;;;;;1924869;74;21233;-59
2023/03/20 03:54:48;;;;;;;36.70;20.62;;;8.50;95.40;;;;;;1924840;74;21082;-59
2023/03/20 03:57:36;;;;;;;47.80;21.25;;;8.50;95.50;;;;;;1924784;74;21245;-59
2023/03/20 04:00:10;;;;;;;40.25;21.90;;;8.40;95.60;;;;;;1924812;74;21520;-59
2023/03/20 04:02:43;;;;;;;42.03;21.20;;;8.40;95.60;;;;;;1925153;74;21826;-59
2023/03/20 04:05:15;;;;;;;45.95;22.42;;;8.40;95.60;;;;;;1924691;74;21852;-59
2023/03/20 04:07:50;;;;;;;42.53;21.65;;;8.40;95.40;;;;;;1924754;74;21266;-59
2023/03/20 04:10:19;;;;;;;42.00;20.08;;;8.40;95.60;;;;;;1924686;74;21577;-59
2023/03/20 04:12:48;;;;;;;44.45;21.60;;;8.50;95.50;;;;;;1924806;74;21098;-59
2023/03/20 04:15:19;;;;;;;39.95;21.05;;;8.40;95.40;;;;;;1924737;74;21216;-59
2023/03/20 04:17:48;;;;;;;40.67;20.48;;;8.40;95.40;;;;;;1924786;74;21098;-59
2023/03/20 04:20:18;;;;;;;52.10;22.87;;;8.50;95.50;;;;;;1924695;74;21257;-59
2023/03/20 04:22:49;;;;;;;44.75;21.73;;;8.40;95.50;;;;;;1924875;74;21070;-59
2023/03/20 04:25:21;;;;;;;45.83;22.75;;;8.50;95.60;;;;;;1924635;74;21183;-59
2023/03/20 04:27:52;;;;;;;45.03;21.00;;;8.50;95.80;;;;;;1924619;73;21259;-59
2023/03/20 04:30:26;;;;;;;48.02;22.37;;;8.40;95.80;;;;;;1922228;74;21242;-59
2023/03/20 04:33:06;;;;;;;36.60;18.45;;;8.40;95.70;;;;;;1923108;74;21254;-59
2023/03/20 04:35:36;;;;;;;43.95;21.27;;;8.40;96.00;;;;;;1922201;74;21276;-59
2023/03/20 04:38:07;;;;;;;37.67;21.45;;;8.40;95.90;;;;;;1923667;74;21935;-59
2023/03/20 04:40:37;;;;;;;50.90;23.12;;;8.40;95.90;;;;;;1924504;74;21350;-59
2023/03/20 04:43:06;;;;;;;36.45;20.52;;;8.40;96.00;;;;;;1924712;74;21312;-59
2023/03/20 04:45:35;;;;;;;43.95;21.33;;;8.30;96.00;;;;;;1924642;74;21272;-59
2023/03/20 04:48:04;;;;;;;21.40;13.55;;;8.30;96.10;;;;;;1924757;74;21864;-59
2023/03/20 04:50:34;;;;;;;49.15;19.02;;;8.30;96.20;;;;;;1924763;74;21260;-59
2023/03/20 04:53:03;;;;;;;43.65;21.75;;;8.30;96.30;;;;;;1924598;74;21224;-59
2023/03/20 04:55:32;;;;;;;43.50;22.55;;;8.30;96.40;;;;;;1924682;74;21249;-59
2023/03/20 04:58:01;;;;;;;48.95;22.42;;;8.20;96.20;;;;;;1924746;74;21173;-59
2023/03/20 05:00:31;;;;;;;45.33;21.87;;;8.30;96.40;;;;;;1924699;74;21182;-59
2023/03/20 05:03:01;;;;;;;36.98;18.95;;;8.30;96.30;;;;;;1924534;74;21263;-59
2023/03/20 05:05:30;;;;;;;42.95;20.55;;;8.30;96.50;;;;;;1924472;74;21236;-59
2023/03/20 05:08:00;;;;;;;41.05;21.33;;;8.30;96.20;;;;;;1924717;74;21054;-59
2023/03/20 05:10:33;;;;;;;45.17;23.10;;;8.30;96.50;;;;;;1924415;74;21086;-59
2023/03/20 05:13:04;;;;;;;32.85;19.00;;;8.30;96.40;;;;;;1922698;74;21513;-59
2023/03/20 05:15:41;;;;;;;53.28;21.87;;;8.30;96.30;;;;;;1922253;74;21364;-59
2023/03/20 05:18:20;;;;;;;43.42;20.45;;;8.40;96.30;;;;;;1850159;77;21312;-59
2023/03/20 05:20:54;;;;;;;50.23;22.07;;;8.40;96.30;;;;;;1921284;74;21127;-59
2023/03/20 05:23:27;;;;;;;43.68;20.20;;;8.40;96.20;;;;;;1921973;74;21372;-59
2023/03/20 05:25:58;;;;;;;32.30;17.82;;;8.30;96.50;;;;;;1921563;74;21436;-60
2023/03/20 05:28:28;;;;;;;46.77;22.27;;;8.40;96.60;;;;;;1877396;74;21335;-59
2023/03/20 05:30:59;;;;;;;41.65;20.70;;;8.30;96.70;;;;;;1919916;74;21652;-59
2023/03/20 05:33:30;;;;;;;35.08;19.48;;;8.30;96.50;;;;;;1914413;74;21268;-59
2023/03/20 05:36:03;;;;;;;43.10;19.73;;;8.30;96.80;;;;;;1922478;74;21309;-58
2023/03/20 05:38:50;;;;;;;45.60;20.92;;;8.30;96.90;;;;;;1924466;74;21268;-59
2023/03/20 05:41:37;;;;;;;44.33;20.85;;;8.30;97.00;;;;;;1924376;74;21750;-59
2023/03/20 05:44:11;;;;;;;41.18;20.57;;;8.30;97.00;;;;;;1920879;74;21289;-59
2023/03/20 05:46:47;;;;;;;46.28;21.42;;;8.30;97.00;;;;;;1893034;74;21204;-59
2023/03/20 05:49:18;;;;;;;45.10;22.00;;;8.30;96.80;;;;;;1922926;74;21272;-60
2023/03/20 05:52:05;;;;;;;36.90;18.55;;;8.30;96.50;;;;;;1924700;74;21380;-59
2023/03/20 05:54:42;;;;;;;37.78;21.48;;;8.30;96.80;;;;;;1923160;74;21309;-58
2023/03/20 05:57:12;;;;;;;40.50;22.73;;;8.30;97.00;;;;;;1919916;74;21153;-59
2023/03/20 05:59:55;;;;;;;50.23;21.57;;;8.40;96.90;;;;;;1924765;74;21293;-58
2023/03/20 06:02:43;;;;;;;35.70;20.60;;;8.40;96.90;;;;;;1924678;74;21412;-58
2023/03/20 06:05:29;;;;;;;45.38;21.95;;;8.40;96.80;;;;;;1923609;74;21432;-58
2023/03/20 06:07:58;;;;;;;45.78;20.48;;;8.40;97.10;;;;;;1924813;74;21564;-59
2023/03/20 06:10:28;;;;;;;41.40;18.57;;;8.40;97.10;;;;;;1924734;74;21260;-58
2023/03/20 06:13:00;;;;;;;28.27;16.80;;;8.40;97.10;;;;;;1924934;74;21417;-58
2023/03/20 06:15:30;;;;;;;34.85;19.12;;;8.40;97.40;;;;;;1924818;74;21227;-58
2023/03/20 06:18:00;;;;;;;40.15;20.27;;;8.50;97.00;;;;;;1923714;74;21735;-59
2023/03/20 06:20:30;;;;;;;37.95;20.35;;;8.50;96.90;;;;;;1924780;74;21343;-58
2023/03/20 06:22:59;;;;;;;32.88;18.27;;;8.50;97.10;;;;;;1924735;74;21265;-58
2023/03/20 06:25:28;;;;;;;26.35;16.42;;;8.50;97.00;;;;;;1924678;74;21189;-58
2023/03/20 06:27:57;;;;;;;23.45;13.18;;;8.50;96.80;;;;;;1924730;74;21636;-58
2023/03/20 06:30:27;;;;;;;26.55;16.40;;;8.50;96.80;;;;;;1924644;74;21861;-58
2023/03/20 06:32:56;;;;;;;34.92;18.50;;;8.40;97.10;;;;;;1924705;74;21253;-58
2023/03/20 06:35:29;;;;;;;33.73;18.15;;;8.40;97.10;;;;;;1924620;74;21260;-58
2023/03/20 06:37:57;;;;;;;22.35;13.58;;;8.40;97.20;;;;;;1924759;74;21556;-58
2023/03/20 06:40:27;;;;;;;35.48;18.00;;;8.40;97.20;;;;;;1924842;74;21317;-58
2023/03/20 06:42:56;;;;;;;34.83;18.02;;;8.40;97.10;;;;;;1924625;74;21316;-58
2023/03/20 06:45:27;;;;;;;36.35;18.87;;;8.40;97.10;;;;;;1923203;74;21221;-58
2023/03/20 06:48:01;;;;;;;33.55;18.15;;;8.40;97.00;;;;;;1924758;74;21438;-58
2023/03/20 06:50:30;;;;;;;41.00;21.68;;;8.40;96.80;;;;;;1924807;74;21217;-58
2023/03/20 06:52:59;;;;;;;29.95;18.10;;;8.40;96.80;;;;;;1924781;74;21379;-58
2023/03/20 06:55:37;;;;;;;30.48;16.70;;;8.40;97.00;;;;;;1922901;74;21329;-58
2023/03/20 06:58:07;;;;;;;34.55;19.57;;;8.40;97.20;;;;;;1924646;74;21439;-58
2023/03/20 07:00:36;;;;;;;35.78;17.37;;;8.40;97.10;;;;;;1924783;74;21127;-58
2023/03/20 07:03:06;;;;;;;33.80;20.60;;;8.40;97.40;;;;;;1924586;74;21446;-58
2023/03/20 07:05:36;;;;;;;41.33;20.82;;;8.40;97.20;;;;;;1924605;74;21307;-58
2023/03/20 07:08:08;;;;;;;35.80;19.45;;;8.40;97.00;;;;;;1924424;74;21308;-58
2023/03/20 07:10:37;;;;;;;41.88;22.60;;;8.50;97.20;;;;;;1924647;74;21192;-58
2023/03/20 07:13:07;;;;;;;30.68;17.25;;;8.50;97.00;;;;;;1924786;74;21304;-58
2023/03/20 07:15:37;;;;;;;45.65;24.85;;;8.50;97.20;;;;;;1924725;74;21252;-58
2023/03/20 07:18:07;;;;;;;154.68;66.87;;;8.50;96.90;;;;;;1924761;74;21398;-58
2023/03/20 07:20:36;;;;;;;57.95;26.07;;;8.50;97.10;;;;;;1924713;74;21201;-58
2023/03/20 07:23:05;;;;;;;35.23;17.23;;;8.60;97.00;;;;;;1924613;74;21245;-58
2023/03/20 07:25:36;;;;;;;28.30;16.10;;;8.50;97.10;;;;;;1924541;74;21272;-59
2023/03/20 07:28:06;;;;;;;27.60;14.10;;;8.50;97.20;;;;;;1924631;74;21269;-59
2023/03/20 07:30:35;;;;;;;34.20;17.67;;;8.50;97.20;;;;;;1924572;74;21356;-58
2023/03/20 07:33:06;;;;;;;30.70;17.87;;;8.50;97.30;;;;;;1924634;74;21323;-58
2023/03/20 07:35:35;;;;;;;38.25;18.67;;;8.50;97.30;;;;;;1924223;74;21267;-58
2023/03/20 07:38:05;;;;;;;33.38;19.25;;;8.50;97.40;;;;;;1920466;74;21225;-56
2023/03/20 07:40:36;;;;;;;32.05;15.88;;;8.50;97.40;;;;;;1896550;74;21335;-57
2023/03/20 07:43:19;;;;;;;33.83;19.40;;;8.60;97.30;;;;;;1890075;75;21350;-56
2023/03/20 07:46:05;;;;;;;35.00;18.02;;;8.60;97.30;;;;;;1891135;76;21352;-57
2023/03/20 07:48:45;;;;;;;41.08;20.45;;;8.60;97.40;;;;;;1891123;76;21370;-57
2023/03/20 07:51:15;;;;;;;32.50;15.10;;;8.60;97.10;;;;;;1890183;75;21727;-58
2023/03/20 07:53:44;;;;;;;44.98;19.12;;;8.60;97.20;;;;;;1891213;76;21249;-57
2023/03/20 07:56:14;;;;;;;37.53;18.20;;;8.60;97.10;;;;;;1883027;75;21486;-57
2023/03/20 07:58:43;;;;;;;48.48;19.05;;;8.60;97.20;;;;;;1897208;75;21348;-58
2023/03/20 08:01:12;;;;;;;38.23;20.50;;;8.60;97.10;;;;;;1891106;75;21332;-57
2023/03/20 08:03:41;;;;;;;43.75;17.98;;;8.60;97.30;;;;;;1903025;75;21403;-57
2023/03/20 08:06:10;;;;;;;41.55;19.07;;;8.60;97.50;;;;;;1898827;74;21135;-56
2023/03/20 08:08:40;;;;;;;39.98;21.30;;;8.70;97.50;;;;;;1900864;74;21332;-56
2023/03/20 08:11:10;;;;;;;49.53;21.93;;;8.70;97.40;;;;;;1918185;74;21264;-57
2023/03/20 08:13:39;;;;;;;36.38;20.00;;;8.70;97.50;;;;;;1884589;74;21340;-57
2023/03/20 08:16:09;;;;;;;46.77;20.62;;;8.70;97.30;;;;;;1913276;73;21275;-56
2023/03/20 08:18:38;;;;;;;39.45;20.35;;;8.70;97.30;;;;;;1884641;74;21211;-53
2023/03/20 08:21:08;;;;;;;53.48;20.57;;;8.70;97.50;;;;;;1871613;75;21273;-56
2023/03/20 08:23:37;;;;;;;59.55;22.22;;;8.70;97.50;;;;;;1871604;77;21336;-57
2023/03/20 14:52:06;;;;;;;32.48;16.23;;;9.80;94.50;;;;;;1973883;72;25837;-59
2023/03/20 14:54:35;;;;;;;35.63;16.85;;;9.70;95.00;;;;;;1821706;73;21303;-59
2023/03/20 14:57:18;;;;;;;38.92;17.15;;;9.60;95.20;;;;;;1949270;73;21042;-59
2023/03/20 14:59:50;;;;;;;37.45;17.42;;;9.60;95.10;;;;;;1937234;73;21134;-59
2023/03/20 15:02:28;;;;;;;30.55;15.75;;;9.50;95.30;;;;;;1949127;73;21140;-59
2023/03/20 15:04:57;;;;;;;40.48;19.17;;;9.50;95.30;;;;;;1949223;73;21139;-58
2023/03/20 15:07:29;;;;;;;42.10;18.55;;;9.50;95.30;;;;;;1949055;73;21630;-58
2023/03/20 15:10:01;;;;;;;34.23;15.05;;;9.50;95.30;;;;;;1946313;73;21727;-58
2023/03/20 15:12:33;;;;;;;32.65;18.37;;;9.50;95.40;;;;;;1949171;73;21050;-58
2023/03/20 15:15:04;;;;;;;30.00;16.30;;;9.50;95.20;;;;;;1949211;73;21191;-59
2023/03/20 15:17:39;;;;;;;27.87;13.75;;;9.50;94.90;;;;;;1943366;73;21489;-59
2023/03/20 15:20:14;;;;;;;33.90;14.90;;;9.50;95.00;;;;;;1949227;73;21197;-59
2023/03/20 15:23:03;;;;;;;32.08;14.95;;;9.50;95.00;;;;;;1949211;73;21074;-60
2023/03/20 15:25:42;;;;;;;38.35;16.32;;;9.40;95.10;;;;;;1949199;73;21236;-60
2023/03/20 15:28:20;;;;;;;39.48;17.15;;;9.50;95.20;;;;;;1949070;73;21034;-60
2023/03/20 15:30:56;;;;;;;31.70;15.38;;;9.50;95.50;;;;;;1948889;73;21011;-60
2023/03/20 15:33:25;;;;;;;36.75;17.27;;;9.60;95.40;;;;;;1946611;73;21256;-60
2023/03/20 15:35:54;;;;;;;26.33;12.05;;;9.70;94.90;;;;;;1949292;73;21600;-60
2023/03/20 15:38:25;;;;;;;28.85;14.58;;;9.70;94.70;;;;;;1949134;73;21188;-60
2023/03/20 15:40:54;;;;;;;31.12;15.53;;;9.60;94.70;;;;;;1949090;73;21457;-60
2023/03/20 15:43:26;;;;;;;26.75;15.10;;;9.60;94.70;;;;;;1949002;73;21121;-60
2023/03/20 15:45:57;;;;;;;36.48;17.70;;;9.50;94.70;;;;;;1948991;73;21264;-60
2023/03/20 15:48:26;;;;;;;34.58;16.05;;;9.50;94.80;;;;;;1949024;73;21153;-60
2023/03/20 15:50:59;;;;;;;30.20;15.43;;;9.50;94.80;;;;;;1945132;73;21094;-59
2023/03/20 15:53:31;;;;;;;28.87;14.30;;;9.50;94.70;;;;;;1936423;74;21154;-60
2023/03/20 15:56:11;;;;;;;19.90;12.35;;;9.40;94.80;;;;;;1936354;74;21229;-60
2023/03/20 15:58:43;;;;;;;30.23;14.75;;;9.40;94.60;;;;;;1935730;74;21103;-60
2023/03/20 16:01:17;;;;;;;29.72;14.73;;;9.40;94.80;;;;;;1936347;74;21174;-60
2023/03/20 16:03:46;;;;;;;31.33;13.20;;;9.40;94.70;;;;;;1935702;74;21253;-60
2023/03/20 16:06:21;;;;;;;35.43;15.32;;;9.40;94.70;;;;;;1935791;74;21535;-60
2023/03/20 16:09:07;;;;;;;33.58;15.70;;;9.40;94.80;;;;;;1935841;74;21023;-60
2023/03/20 16:11:36;;;;;;;;;;;9.40;94.80;;;;;;1938623;74;21143;-60
2023/03/20 16:14:07;;;;;;;31.02;14.60;;;9.30;94.60;;;;;;1935621;74;20594;-60
2023/03/20 16:16:36;;;;;;;27.93;15.25;;;9.40;94.70;;;;;;1935665;74;21141;-60
2023/03/20 16:19:07;;;;;;;34.13;15.48;;;9.30;94.70;;;;;;1935846;74;21165;-59
2023/03/20 16:21:39;;;;;;;26.85;14.35;;;9.30;94.70;;;;;;1935877;74;21217;-60
2023/03/20 16:24:11;;;;;;;34.63;17.37;;;9.30;94.70;;;;;;1935857;74;21082;-60
2023/03/20 16:26:43;;;;;;;27.87;15.00;;;9.30;94.70;;;;;;1935606;74;21118;-60
2023/03/20 16:29:14;;;;;;;27.73;14.83;;;9.30;94.80;;;;;;1935838;74;21756;-60
2023/03/20 16:31:49;;;;;;;31.80;15.38;;;9.30;94.60;;;;;;1935909;74;21077;-60
2023/03/20 16:34:20;;;;;;;27.02;14.73;;;9.30;94.70;;;;;;1935945;74;21035;-60
2023/03/20 16:36:55;;;;;;;30.17;14.73;;;9.30;94.70;;;;;;1934830;74;21089;-60
2023/03/20 16:39:27;;;;;;;33.65;14.95;;;9.30;94.90;;;;;;1935932;74;21158;-60
2023/03/20 16:42:04;;;;;;;34.40;16.65;;;9.30;94.80;;;;;;1935853;74;20999;-60
2023/03/20 16:44:35;;;;;;;34.27;16.52;;;9.30;94.80;;;;;;1915850;74;21777;-60
2023/03/20 16:47:25;;;;;;;33.30;16.05;;;9.30;94.70;;;;;;1935868;74;21311;-60
2023/03/20 16:50:11;;;;;;;34.38;16.10;;;9.30;94.70;;;;;;1935859;74;21154;-60
2023/03/20 16:52:43;;;;;;;32.75;17.92;;;9.30;94.60;;;;;;1946216;74;21517;-60
2023/03/20 16:55:18;;;;;;;32.98;16.45;;;9.30;94.80;;;;;;1949068;73;21129;-60
2023/03/20 16:57:50;;;;;;;32.28;17.05;;;9.30;94.70;;;;;;1947850;74;21229;-60
2023/03/20 17:00:22;;;;;;;33.13;15.95;;;9.30;94.80;;;;;;1948965;74;21158;-60
2023/03/20 17:02:54;;;;;;;33.02;15.38;;;9.40;94.90;;;;;;1948958;74;21644;-60
2023/03/20 17:05:23;;;;;;;35.23;16.12;;;9.40;94.80;;;;;;1948132;74;21169;-60
2023/03/20 17:07:55;;;;;;;31.23;15.80;;;9.40;94.70;;;;;;1948915;73;21100;-60
2023/03/20 17:10:26;;;;;;;32.17;15.80;;;9.40;94.70;;;;;;1948651;73;21102;-60
2023/03/20 17:12:55;;;;;;;29.12;13.85;;;9.40;94.70;;;;;;1948885;73;21450;-60
2023/03/20 17:15:25;;;;;;;32.03;15.88;;;9.40;94.70;;;;;;1948984;73;21211;-60
2023/03/20 17:17:54;;;;;;;36.15;14.07;;;9.40;94.70;;;;;;1948870;73;21315;-60
2023/03/20 17:20:26;;;;;;;28.67;15.60;;;9.40;94.60;;;;;;1948909;74;21012;-60
2023/03/20 17:22:55;;;;;;;29.23;14.35;;;9.30;94.20;;;;;;1948911;74;21093;-60
2023/03/20 17:25:24;;;;;;;31.82;15.00;;;9.30;94.50;;;;;;1948943;74;21203;-59
2023/03/20 17:27:53;;;;;;;32.73;16.50;;;9.30;94.60;;;;;;1948886;74;21161;-60
2023/03/20 17:30:24;;;;;;;45.45;17.65;;;9.30;94.80;;;;;;1948941;74;21181;-60
2023/03/20 17:32:54;;;;;;;36.75;15.43;;;9.30;94.90;;;;;;1948920;74;21138;-60
2023/03/20 17:35:23;;;;;;;34.80;14.60;;;9.40;94.90;;;;;;1948942;74;21121;-60
2023/03/20 17:37:51;;;;;;;30.82;13.85;;;9.40;94.90;;;;;;1948870;74;21106;-60
2023/03/20 17:40:24;;;;;;;31.80;14.90;;;9.40;94.90;;;;;;1949046;74;21529;-60
2023/03/20 17:42:53;;;;;;;26.02;14.58;;;9.40;94.60;;;;;;1948841;74;21189;-60
2023/03/20 17:45:23;;;;;;;27.32;13.38;;;9.40;94.70;;;;;;1948833;74;21134;-59
2023/03/20 17:47:53;;;;;;;27.87;14.68;;;9.40;94.60;;;;;;1948819;74;21251;-60
2023/03/20 17:50:25;;;;;;;30.37;13.70;;;9.40;94.60;;;;;;1948771;73;21054;-60
2023/03/20 17:52:55;;;;;;;32.58;15.35;;;9.40;94.50;;;;;;1941097;74;21119;-60
2023/03/20 17:55:24;;;;;;;30.12;14.65;;;9.40;94.40;;;;;;1935878;74;21132;-60
2023/03/20 17:57:54;;;;;;;28.73;15.20;;;9.40;94.60;;;;;;1935728;74;20995;-60
2023/03/20 18:00:24;;;;;;;29.37;14.85;;;9.30;94.70;;;;;;1935843;74;21221;-60
2023/03/20 18:02:53;;;;;;;23.52;13.45;;;9.40;94.80;;;;;;1935760;74;21107;-60
2023/03/20 18:05:22;;;;;;;30.02;15.58;;;9.40;94.70;;;;;;1935882;74;20980;-60
2023/03/20 18:07:51;;;;;;;27.80;15.63;;;9.40;94.60;;;;;;1935712;74;21196;-60
2023/03/20 18:10:30;;;;;;;28.67;15.23;;;9.40;94.60;;;;;;1935748;74;21066;-60
2023/03/20 18:12:59;;;;;;;27.85;14.85;;;9.40;94.80;;;;;;1935773;74;21145;-60
2023/03/20 18:15:29;;;;;;;36.48;14.85;;;9.40;94.80;;;;;;1935718;74;21200;-60
2023/03/20 18:17:58;;;;;;;37.60;15.85;;;9.50;94.80;;;;;;1935670;74;21118;-60
2023/03/20 18:20:32;;;;;;;30.37;15.18;;;9.50;94.80;;;;;;1935696;74;21063;-59
2023/03/20 18:23:01;;;;;;;34.40;15.78;;;9.60;95.00;;;;;;1935856;74;21075;-60
2023/03/20 18:25:31;;;;;;;31.17;14.33;;;9.60;94.90;;;;;;1935769;74;21122;-59
2023/03/20 18:28:01;;;;;;;27.20;16.30;;;9.70;94.90;;;;;;1935623;74;21562;-60
2023/03/20 18:30:36;;;;;;;30.55;15.88;;;9.70;94.90;;;;;;1935827;74;21160;-60
2023/03/20 18:33:05;;;;;;;27.82;16.25;;;9.80;94.90;;;;;;1934373;74;21663;-59
2023/03/20 18:35:35;;;;;;;26.40;14.78;;;9.90;94.90;;;;;;1935694;74;21102;-60
2023/03/20 18:38:05;;;;;;;30.90;14.75;;;9.90;94.90;;;;;;1935761;74;21339;-59
2023/03/20 18:40:36;;;;;;;30.52;15.93;;;10.00;94.80;;;;;;1935661;74;21196;-60
2023/03/20 18:43:05;;;;;;;32.45;15.70;;;10.00;94.90;;;;;;1935605;74;21114;-60
2023/03/20 18:45:34;;;;;;;28.12;14.70;;;10.00;94.80;;;;;;1935712;74;21134;-59
2023/03/20 18:48:03;;;;;;;30.85;15.48;;;10.00;94.80;;;;;;1935606;74;21298;-60
2023/03/20 18:50:35;;;;;;;30.55;15.60;;;10.00;94.80;;;;;;1935809;74;21133;-59
2023/03/20 18:53:05;;;;;;;40.23;15.58;;;10.00;94.60;;;;;;1938560;73;21059;-60
2023/03/20 18:55:41;;;;;;;26.35;14.18;;;10.00;94.70;;;;;;1943196;74;21050;-60
2023/03/20 18:58:08;;;;;;;27.07;16.00;;;10.00;94.80;;;;;;1941297;74;21206;-60
2023/03/20 19:00:41;;;;;;;27.20;13.90;;;10.00;94.80;;;;;;1943202;74;21247;-59
2023/03/20 19:03:11;;;;;;;37.25;14.65;;;10.10;94.90;;;;;;1943180;74;21042;-60
2023/03/20 19:05:40;;;;;;;27.52;14.70;;;10.10;94.80;;;;;;1943167;74;21122;-60
2023/03/20 19:08:12;;;;;;;30.72;14.78;;;10.10;94.70;;;;;;1943122;74;21093;-59
2023/03/20 19:10:42;;;;;;;29.75;15.13;;;10.10;94.80;;;;;;1943237;74;21181;-60
2023/03/20 19:13:14;;;;;;;31.12;16.42;;;10.10;94.80;;;;;;1943085;74;21195;-60
2023/03/20 19:15:45;;;;;;;35.28;16.35;;;10.10;94.80;;;;;;1943200;74;21505;-60
2023/03/20 19:18:20;;;;;;;32.63;16.12;;;10.20;94.90;;;;;;1943111;74;20983;-60
2023/03/20 19:20:49;;;;;;;;;;;10.20;94.80;;;;;;1946236;74;21055;-60
2023/03/20 19:23:19;;;;;;;28.65;15.70;;;10.20;94.80;;;;;;1943184;74;20635;-60
2023/03/20 19:25:50;;;;;;;28.83;15.38;;;10.20;94.80;;;;;;1943267;74;21189;-60
2023/03/20 19:28:33;;;;;;;28.65;14.28;;;10.20;94.80;;;;;;1943208;74;21117;-60
2023/03/20 19:31:02;;;;;;;30.50;16.52;;;10.20;94.70;;;;;;1943261;74;21075;-60
2023/03/20 19:33:32;;;;;;;26.07;16.27;;;10.20;94.70;;;;;;1943174;74;21151;-60